sensor_id;sensor_type;location;lat;lon;timestamp;P1;durP1;ratioP1;P2;durP2;ratioP2
70322;SDS011;57735;56.264;43.898;2023-09-19T00:01:25;20.33;;;9.60;;
70322;SDS011;57735;56.264;43.898;2023-09-19T00:03:56;15.43;;;9.10;;
70322;SDS011;57735;56.264;43.898;2023-09-19T00:06:29;19.58;;;9.75;;
70322;SDS011;57735;56.264;43.898;2023-09-19T00:09:03;16.13;;;8.93;;
70322;SDS011;57735;56.264;43.898;2023-09-19T00:11:36;19.95;;;10.10;;
70322;SDS011;57735;56.264;43.898;2023-09-19T00:14:08;15.98;;;9.32;;
70322;SDS011;57735;56.264;43.898;2023-09-19T00:16:39;17.00;;;9.38;;
70322;SDS011;57735;56.264;43.898;2023-09-19T00:19:11;18.35;;;9.43;;
70322;SDS011;57735;56.264;43.898;2023-09-19T00:21:43;18.17;;;10.07;;
70322;SDS011;57735;56.264;43.898;2023-09-19T00:24:16;17.55;;;8.95;;
70322;SDS011;57735;56.264;43.898;2023-09-19T00:26:47;15.80;;;8.68;;
70322;SDS011;57735;56.264;43.898;2023-09-19T00:29:21;15.57;;;8.45;;
70322;SDS011;57735;56.264;43.898;2023-09-19T00:31:53;14.38;;;8.25;;
70322;SDS011;57735;56.264;43.898;2023-09-19T00:34:24;13.85;;;8.38;;
70322;SDS011;57735;56.264;43.898;2023-09-19T00:36:55;20.05;;;8.20;;
70322;SDS011;57735;56.264;43.898;2023-09-19T00:39:26;17.33;;;8.80;;
70322;SDS011;57735;56.264;43.898;2023-09-19T00:42:01;16.45;;;8.65;;
70322;SDS011;57735;56.264;43.898;2023-09-19T00:44:35;16.23;;;8.10;;
70322;SDS011;57735;56.264;43.898;2023-09-19T00:49:45;14.55;;;7.80;;
70322;SDS011;57735;56.264;43.898;2023-09-19T00:52:19;16.27;;;8.67;;
70322;SDS011;57735;56.264;43.898;2023-09-19T00:54:50;14.98;;;8.05;;
70322;SDS011;57735;56.264;43.898;2023-09-19T00:57:22;15.20;;;8.52;;
70322;SDS011;57735;56.264;43.898;2023-09-19T00:59:54;17.90;;;8.27;;
70322;SDS011;57735;56.264;43.898;2023-09-19T01:02:26;43.90;;;11.05;;
70322;SDS011;57735;56.264;43.898;2023-09-19T01:04:58;25.42;;;9.15;;
70322;SDS011;57735;56.264;43.898;2023-09-19T01:07:31;26.90;;;8.55;;
70322;SDS011;57735;56.264;43.898;2023-09-19T01:10:04;25.73;;;8.52;;
70322;SDS011;57735;56.264;43.898;2023-09-19T01:12:57;20.15;;;7.97;;
70322;SDS011;57735;56.264;43.898;2023-09-19T01:15:51;27.75;;;8.75;;
70322;SDS011;57735;56.264;43.898;2023-09-19T01:18:52;23.58;;;8.45;;
70322;SDS011;57735;56.264;43.898;2023-09-19T01:21:39;19.80;;;8.63;;
70322;SDS011;57735;56.264;43.898;2023-09-19T01:32:37;19.83;;;8.98;;
70322;SDS011;57735;56.264;43.898;2023-09-19T01:35:11;14.20;;;8.18;;
70322;SDS011;57735;56.264;43.898;2023-09-19T01:37:43;16.45;;;8.10;;
70322;SDS011;57735;56.264;43.898;2023-09-19T01:40:16;17.23;;;8.65;;
70322;SDS011;57735;56.264;43.898;2023-09-19T01:42:58;16.98;;;8.55;;
70322;SDS011;57735;56.264;43.898;2023-09-19T01:48:46;21.27;;;8.95;;
70322;SDS011;57735;56.264;43.898;2023-09-19T01:51:32;23.65;;;9.07;;
70322;SDS011;57735;56.264;43.898;2023-09-19T01:54:06;20.25;;;9.27;;
70322;SDS011;57735;56.264;43.898;2023-09-19T01:56:45;25.17;;;9.82;;
70322;SDS011;57735;56.264;43.898;2023-09-19T01:59:24;26.73;;;11.20;;
70322;SDS011;57735;56.264;43.898;2023-09-19T02:01:58;23.75;;;10.20;;
70322;SDS011;57735;56.264;43.898;2023-09-19T02:04:32;25.90;;;10.95;;
70322;SDS011;57735;56.264;43.898;2023-09-19T02:07:05;26.00;;;11.13;;
70322;SDS011;57735;56.264;43.898;2023-09-19T02:09:36;25.38;;;10.50;;
70322;SDS011;57735;56.264;43.898;2023-09-19T02:12:09;27.33;;;11.20;;
70322;SDS011;57735;56.264;43.898;2023-09-19T02:14:40;23.42;;;10.38;;
70322;SDS011;57735;56.264;43.898;2023-09-19T02:17:11;24.35;;;10.25;;
70322;SDS011;57735;56.264;43.898;2023-09-19T02:19:45;25.30;;;10.68;;
70322;SDS011;57735;56.264;43.898;2023-09-19T02:22:15;18.63;;;10.23;;
70322;SDS011;57735;56.264;43.898;2023-09-19T02:24:46;22.73;;;10.93;;
70322;SDS011;57735;56.264;43.898;2023-09-19T02:27:18;24.80;;;10.65;;
70322;SDS011;57735;56.264;43.898;2023-09-19T02:29:49;25.52;;;11.65;;
70322;SDS011;57735;56.264;43.898;2023-09-19T02:32:20;24.17;;;11.10;;
70322;SDS011;57735;56.264;43.898;2023-09-19T02:34:51;24.63;;;11.68;;
70322;SDS011;57735;56.264;43.898;2023-09-19T02:37:22;22.75;;;12.07;;
70322;SDS011;57735;56.264;43.898;2023-09-19T02:39:55;22.63;;;11.48;;
70322;SDS011;57735;56.264;43.898;2023-09-19T02:42:26;23.25;;;11.68;;
70322;SDS011;57735;56.264;43.898;2023-09-19T02:44:57;21.92;;;11.65;;
70322;SDS011;57735;56.264;43.898;2023-09-19T02:47:28;21.42;;;11.13;;
70322;SDS011;57735;56.264;43.898;2023-09-19T02:50:01;26.63;;;11.70;;
70322;SDS011;57735;56.264;43.898;2023-09-19T02:52:32;29.02;;;12.25;;
70322;SDS011;57735;56.264;43.898;2023-09-19T02:55:04;25.75;;;11.80;;
70322;SDS011;57735;56.264;43.898;2023-09-19T02:57:36;27.83;;;11.40;;
70322;SDS011;57735;56.264;43.898;2023-09-19T03:00:11;32.08;;;11.70;;
70322;SDS011;57735;56.264;43.898;2023-09-19T03:02:43;26.27;;;12.75;;
70322;SDS011;57735;56.264;43.898;2023-09-19T03:05:14;24.85;;;11.82;;
70322;SDS011;57735;56.264;43.898;2023-09-19T03:07:46;29.38;;;12.40;;
70322;SDS011;57735;56.264;43.898;2023-09-19T03:12:51;27.08;;;10.85;;
70322;SDS011;57735;56.264;43.898;2023-09-19T03:15:22;27.15;;;12.15;;
70322;SDS011;57735;56.264;43.898;2023-09-19T03:17:53;32.13;;;11.85;;
70322;SDS011;57735;56.264;43.898;2023-09-19T03:20:24;26.92;;;12.80;;
70322;SDS011;57735;56.264;43.898;2023-09-19T03:22:55;38.53;;;12.18;;
70322;SDS011;57735;56.264;43.898;2023-09-19T03:25:27;32.25;;;12.93;;
70322;SDS011;57735;56.264;43.898;2023-09-19T03:27:58;32.00;;;12.90;;
70322;SDS011;57735;56.264;43.898;2023-09-19T03:30:30;32.10;;;13.68;;
70322;SDS011;57735;56.264;43.898;2023-09-19T03:33:00;29.98;;;13.65;;
70322;SDS011;57735;56.264;43.898;2023-09-19T03:35:31;27.75;;;13.23;;
70322;SDS011;57735;56.264;43.898;2023-09-19T03:38:02;29.05;;;13.65;;
70322;SDS011;57735;56.264;43.898;2023-09-19T03:40:33;33.50;;;13.70;;
70322;SDS011;57735;56.264;43.898;2023-09-19T03:43:04;36.42;;;14.25;;
70322;SDS011;57735;56.264;43.898;2023-09-19T03:45:34;40.00;;;14.85;;
70322;SDS011;57735;56.264;43.898;2023-09-19T03:48:09;33.03;;;14.20;;
70322;SDS011;57735;56.264;43.898;2023-09-19T03:50:40;35.42;;;14.93;;
70322;SDS011;57735;56.264;43.898;2023-09-19T03:53:11;28.35;;;14.75;;
70322;SDS011;57735;56.264;43.898;2023-09-19T03:55:44;31.60;;;14.18;;
70322;SDS011;57735;56.264;43.898;2023-09-19T03:58:16;31.80;;;13.65;;
70322;SDS011;57735;56.264;43.898;2023-09-19T04:00:47;33.80;;;15.88;;
70322;SDS011;57735;56.264;43.898;2023-09-19T04:03:19;43.67;;;15.23;;
70322;SDS011;57735;56.264;43.898;2023-09-19T04:05:53;47.90;;;15.55;;
70322;SDS011;57735;56.264;43.898;2023-09-19T04:08:24;33.53;;;14.48;;
70322;SDS011;57735;56.264;43.898;2023-09-19T04:10:54;35.10;;;15.15;;
70322;SDS011;57735;56.264;43.898;2023-09-19T04:13:25;45.38;;;14.68;;
70322;SDS011;57735;56.264;43.898;2023-09-19T04:15:56;40.05;;;15.10;;
70322;SDS011;57735;56.264;43.898;2023-09-19T04:18:29;27.42;;;13.45;;
70322;SDS011;57735;56.264;43.898;2023-09-19T04:21:07;39.20;;;14.65;;
70322;SDS011;57735;56.264;43.898;2023-09-19T04:23:38;37.30;;;15.00;;
70322;SDS011;57735;56.264;43.898;2023-09-19T04:26:16;36.30;;;14.68;;
70322;SDS011;57735;56.264;43.898;2023-09-19T04:28:47;42.60;;;14.02;;
70322;SDS011;57735;56.264;43.898;2023-09-19T04:31:17;28.95;;;12.23;;
70322;SDS011;57735;56.264;43.898;2023-09-19T04:33:50;30.20;;;13.30;;
70322;SDS011;57735;56.264;43.898;2023-09-19T04:36:20;33.83;;;13.02;;
70322;SDS011;57735;56.264;43.898;2023-09-19T04:38:53;26.27;;;13.38;;
70322;SDS011;57735;56.264;43.898;2023-09-19T04:41:24;28.73;;;12.73;;
70322;SDS011;57735;56.264;43.898;2023-09-19T04:43:54;32.22;;;13.00;;
70322;SDS011;57735;56.264;43.898;2023-09-19T04:46:25;23.75;;;11.90;;
70322;SDS011;57735;56.264;43.898;2023-09-19T04:48:56;48.13;;;13.15;;
70322;SDS011;57735;56.264;43.898;2023-09-19T04:51:28;29.30;;;12.70;;
70322;SDS011;57735;56.264;43.898;2023-09-19T04:54:04;26.35;;;12.48;;
70322;SDS011;57735;56.264;43.898;2023-09-19T04:56:35;28.83;;;11.65;;
70322;SDS011;57735;56.264;43.898;2023-09-19T04:59:06;33.10;;;10.15;;
70322;SDS011;57735;56.264;43.898;2023-09-19T05:01:37;23.27;;;10.93;;
70322;SDS011;57735;56.264;43.898;2023-09-19T05:04:08;23.00;;;11.13;;
70322;SDS011;57735;56.264;43.898;2023-09-19T05:06:38;24.52;;;10.35;;
70322;SDS011;57735;56.264;43.898;2023-09-19T05:09:09;24.92;;;10.52;;
70322;SDS011;57735;56.264;43.898;2023-09-19T05:11:40;27.35;;;10.32;;
70322;SDS011;57735;56.264;43.898;2023-09-19T05:14:11;17.85;;;8.18;;
70322;SDS011;57735;56.264;43.898;2023-09-19T05:16:41;24.80;;;9.43;;
70322;SDS011;57735;56.264;43.898;2023-09-19T05:19:13;26.55;;;9.75;;
70322;SDS011;57735;56.264;43.898;2023-09-19T05:21:43;24.05;;;7.47;;
70322;SDS011;57735;56.264;43.898;2023-09-19T05:24:16;18.48;;;6.40;;
70322;SDS011;57735;56.264;43.898;2023-09-19T05:26:47;15.18;;;6.25;;
70322;SDS011;57735;56.264;43.898;2023-09-19T05:29:18;19.92;;;6.82;;
70322;SDS011;57735;56.264;43.898;2023-09-19T05:31:48;15.27;;;6.65;;
70322;SDS011;57735;56.264;43.898;2023-09-19T05:34:20;19.60;;;5.20;;
70322;SDS011;57735;56.264;43.898;2023-09-19T05:36:50;18.92;;;5.97;;
70322;SDS011;57735;56.264;43.898;2023-09-19T05:39:22;15.40;;;5.82;;
70322;SDS011;57735;56.264;43.898;2023-09-19T05:41:53;10.30;;;4.50;;
70322;SDS011;57735;56.264;43.898;2023-09-19T05:44:24;9.85;;;4.45;;
70322;SDS011;57735;56.264;43.898;2023-09-19T05:46:54;11.40;;;4.95;;
70322;SDS011;57735;56.264;43.898;2023-09-19T05:49:27;10.65;;;4.80;;
70322;SDS011;57735;56.264;43.898;2023-09-19T05:51:58;6.90;;;2.70;;
70322;SDS011;57735;56.264;43.898;2023-09-19T05:54:31;9.30;;;1.55;;
70322;SDS011;57735;56.264;43.898;2023-09-19T05:57:05;9.45;;;1.40;;
70322;SDS011;57735;56.264;43.898;2023-09-19T05:59:36;4.85;;;1.60;;
70322;SDS011;57735;56.264;43.898;2023-09-19T06:02:07;7.57;;;2.28;;
70322;SDS011;57735;56.264;43.898;2023-09-19T06:04:40;12.05;;;2.08;;
70322;SDS011;57735;56.264;43.898;2023-09-19T06:07:11;4.53;;;2.00;;
70322;SDS011;57735;56.264;43.898;2023-09-19T06:09:44;10.48;;;1.73;;
70322;SDS011;57735;56.264;43.898;2023-09-19T06:12:19;16.35;;;2.00;;
70322;SDS011;57735;56.264;43.898;2023-09-19T06:14:50;1.98;;;0.82;;
70322;SDS011;57735;56.264;43.898;2023-09-19T06:17:21;1.38;;;0.75;;
70322;SDS011;57735;56.264;43.898;2023-09-19T06:19:53;2.15;;;1.10;;
70322;SDS011;57735;56.264;43.898;2023-09-19T06:22:23;3.00;;;1.08;;
70322;SDS011;57735;56.264;43.898;2023-09-19T06:24:54;4.53;;;1.17;;
70322;SDS011;57735;56.264;43.898;2023-09-19T06:27:25;2.90;;;1.00;;
70322;SDS011;57735;56.264;43.898;2023-09-19T06:29:56;1.85;;;0.90;;
70322;SDS011;57735;56.264;43.898;2023-09-19T06:32:27;2.10;;;0.82;;
70322;SDS011;57735;56.264;43.898;2023-09-19T06:34:58;1.20;;;0.60;;
70322;SDS011;57735;56.264;43.898;2023-09-19T06:37:29;7.15;;;1.30;;
70322;SDS011;57735;56.264;43.898;2023-09-19T06:40:00;5.80;;;0.70;;
70322;SDS011;57735;56.264;43.898;2023-09-19T06:42:31;3.70;;;1.23;;
70322;SDS011;57735;56.264;43.898;2023-09-19T06:45:02;3.50;;;0.88;;
70322;SDS011;57735;56.264;43.898;2023-09-19T06:47:37;0.82;;;0.63;;
70322;SDS011;57735;56.264;43.898;2023-09-19T06:50:08;4.53;;;0.93;;
70322;SDS011;57735;56.264;43.898;2023-09-19T06:52:44;3.10;;;0.90;;
70322;SDS011;57735;56.264;43.898;2023-09-19T06:55:20;1.73;;;0.80;;
70322;SDS011;57735;56.264;43.898;2023-09-19T06:57:56;5.43;;;1.38;;
70322;SDS011;57735;56.264;43.898;2023-09-19T07:00:28;2.70;;;1.00;;
70322;SDS011;57735;56.264;43.898;2023-09-19T07:03:03;2.70;;;1.47;;
70322;SDS011;57735;56.264;43.898;2023-09-19T07:05:41;4.97;;;0.90;;
70322;SDS011;57735;56.264;43.898;2023-09-19T07:08:15;1.02;;;0.88;;
70322;SDS011;57735;56.264;43.898;2023-09-19T07:10:46;1.85;;;0.80;;
70322;SDS011;57735;56.264;43.898;2023-09-19T07:13:19;1.58;;;0.85;;
70322;SDS011;57735;56.264;43.898;2023-09-19T07:15:50;1.55;;;0.90;;
70322;SDS011;57735;56.264;43.898;2023-09-19T07:18:21;2.63;;;1.35;;
70322;SDS011;57735;56.264;43.898;2023-09-19T07:20:56;3.05;;;1.00;;
70322;SDS011;57735;56.264;43.898;2023-09-19T07:23:31;2.50;;;1.10;;
70322;SDS011;57735;56.264;43.898;2023-09-19T07:26:05;6.57;;;1.10;;
70322;SDS011;57735;56.264;43.898;2023-09-19T07:28:37;1.40;;;1.00;;
70322;SDS011;57735;56.264;43.898;2023-09-19T07:31:07;6.45;;;1.00;;
70322;SDS011;57735;56.264;43.898;2023-09-19T07:33:40;5.88;;;0.88;;
70322;SDS011;57735;56.264;43.898;2023-09-19T07:36:14;2.58;;;1.10;;
70322;SDS011;57735;56.264;43.898;2023-09-19T07:38:46;4.43;;;1.20;;
70322;SDS011;57735;56.264;43.898;2023-09-19T07:41:17;1.70;;;1.17;;
70322;SDS011;57735;56.264;43.898;2023-09-19T07:43:52;6.55;;;1.30;;
70322;SDS011;57735;56.264;43.898;2023-09-19T07:46:23;6.93;;;2.00;;
70322;SDS011;57735;56.264;43.898;2023-09-19T07:48:58;5.10;;;1.80;;
70322;SDS011;57735;56.264;43.898;2023-09-19T07:51:28;6.05;;;1.65;;
70322;SDS011;57735;56.264;43.898;2023-09-19T07:53:59;7.40;;;2.17;;
70322;SDS011;57735;56.264;43.898;2023-09-19T07:56:33;2.40;;;1.60;;
70322;SDS011;57735;56.264;43.898;2023-09-19T07:59:04;3.58;;;1.50;;
70322;SDS011;57735;56.264;43.898;2023-09-19T08:01:35;3.90;;;1.70;;
70322;SDS011;57735;56.264;43.898;2023-09-19T08:04:05;5.05;;;2.17;;
70322;SDS011;57735;56.264;43.898;2023-09-19T08:06:37;5.20;;;1.48;;
70322;SDS011;57735;56.264;43.898;2023-09-19T08:09:09;7.60;;;1.50;;
70322;SDS011;57735;56.264;43.898;2023-09-19T08:11:46;3.65;;;1.63;;
70322;SDS011;57735;56.264;43.898;2023-09-19T08:14:18;4.07;;;1.63;;
70322;SDS011;57735;56.264;43.898;2023-09-19T08:16:48;3.97;;;1.63;;
70322;SDS011;57735;56.264;43.898;2023-09-19T08:19:21;4.07;;;1.50;;
70322;SDS011;57735;56.264;43.898;2023-09-19T08:21:56;3.85;;;1.38;;
70322;SDS011;57735;56.264;43.898;2023-09-19T08:24:33;4.63;;;1.60;;
70322;SDS011;57735;56.264;43.898;2023-09-19T08:27:05;5.72;;;2.13;;
70322;SDS011;57735;56.264;43.898;2023-09-19T08:29:39;5.30;;;1.83;;
70322;SDS011;57735;56.264;43.898;2023-09-19T08:32:12;5.65;;;1.73;;
70322;SDS011;57735;56.264;43.898;2023-09-19T08:34:43;2.92;;;2.00;;
70322;SDS011;57735;56.264;43.898;2023-09-19T08:37:13;17.50;;;2.35;;
70322;SDS011;57735;56.264;43.898;2023-09-19T08:39:44;3.42;;;1.70;;
70322;SDS011;57735;56.264;43.898;2023-09-19T08:42:15;3.50;;;1.60;;
70322;SDS011;57735;56.264;43.898;2023-09-19T08:44:48;4.82;;;1.85;;
70322;SDS011;57735;56.264;43.898;2023-09-19T08:47:19;4.47;;;2.17;;
70322;SDS011;57735;56.264;43.898;2023-09-19T08:50:10;16.33;;;7.30;;
70322;SDS011;57735;56.264;43.898;2023-09-19T08:52:49;10.63;;;6.10;;
70322;SDS011;57735;56.264;43.898;2023-09-19T08:55:26;19.25;;;6.65;;
70322;SDS011;57735;56.264;43.898;2023-09-19T08:58:09;7.47;;;3.80;;
70322;SDS011;57735;56.264;43.898;2023-09-19T09:00:41;10.68;;;5.35;;
70322;SDS011;57735;56.264;43.898;2023-09-19T09:03:16;11.38;;;5.50;;
70322;SDS011;57735;56.264;43.898;2023-09-19T09:05:51;10.73;;;5.35;;
70322;SDS011;57735;56.264;43.898;2023-09-19T09:08:22;11.68;;;5.07;;
70322;SDS011;57735;56.264;43.898;2023-09-19T09:10:54;7.93;;;4.40;;
70322;SDS011;57735;56.264;43.898;2023-09-19T09:13:25;8.93;;;4.57;;
70322;SDS011;57735;56.264;43.898;2023-09-19T09:15:57;8.35;;;4.05;;
70322;SDS011;57735;56.264;43.898;2023-09-19T09:18:29;8.35;;;4.43;;
70322;SDS011;57735;56.264;43.898;2023-09-19T09:21:00;11.82;;;4.60;;
70322;SDS011;57735;56.264;43.898;2023-09-19T09:23:31;9.85;;;5.03;;
70322;SDS011;57735;56.264;43.898;2023-09-19T09:26:06;19.63;;;6.32;;
70322;SDS011;57735;56.264;43.898;2023-09-19T09:28:44;13.30;;;5.78;;
70322;SDS011;57735;56.264;43.898;2023-09-19T09:31:22;12.63;;;5.13;;
70322;SDS011;57735;56.264;43.898;2023-09-19T09:33:56;16.50;;;5.90;;
70322;SDS011;57735;56.264;43.898;2023-09-19T09:36:34;16.60;;;5.97;;
70322;SDS011;57735;56.264;43.898;2023-09-19T09:39:11;21.58;;;7.10;;
70322;SDS011;57735;56.264;43.898;2023-09-19T09:41:49;14.40;;;6.30;;
70322;SDS011;57735;56.264;43.898;2023-09-19T09:44:20;17.95;;;7.65;;
70322;SDS011;57735;56.264;43.898;2023-09-19T09:46:51;13.63;;;4.65;;
70322;SDS011;57735;56.264;43.898;2023-09-19T09:49:25;7.70;;;3.33;;
70322;SDS011;57735;56.264;43.898;2023-09-19T09:52:05;9.35;;;3.25;;
70322;SDS011;57735;56.264;43.898;2023-09-19T09:55:00;7.18;;;3.50;;
70322;SDS011;57735;56.264;43.898;2023-09-19T09:57:35;5.97;;;2.75;;
70322;SDS011;57735;56.264;43.898;2023-09-19T10:00:06;12.25;;;4.15;;
70322;SDS011;57735;56.264;43.898;2023-09-19T10:02:44;5.65;;;2.63;;
70322;SDS011;57735;56.264;43.898;2023-09-19T10:05:17;7.47;;;2.63;;
70322;SDS011;57735;56.264;43.898;2023-09-19T10:07:59;4.85;;;2.63;;
70322;SDS011;57735;56.264;43.898;2023-09-19T10:10:42;9.52;;;2.45;;
70322;SDS011;57735;56.264;43.898;2023-09-19T10:13:14;8.38;;;2.72;;
70322;SDS011;57735;56.264;43.898;2023-09-19T10:15:52;6.53;;;2.60;;
70322;SDS011;57735;56.264;43.898;2023-09-19T10:18:27;7.57;;;3.40;;
70322;SDS011;57735;56.264;43.898;2023-09-19T10:21:00;7.10;;;2.70;;
70322;SDS011;57735;56.264;43.898;2023-09-19T10:23:34;11.48;;;3.00;;
70322;SDS011;57735;56.264;43.898;2023-09-19T10:26:07;6.38;;;3.17;;
70322;SDS011;57735;56.264;43.898;2023-09-19T10:28:40;7.78;;;2.28;;
70322;SDS011;57735;56.264;43.898;2023-09-19T10:31:11;10.15;;;2.47;;
70322;SDS011;57735;56.264;43.898;2023-09-19T10:36:56;4.47;;;1.83;;
70322;SDS011;57735;56.264;43.898;2023-09-19T10:39:28;4.03;;;2.13;;
70322;SDS011;57735;56.264;43.898;2023-09-19T10:42:02;9.02;;;3.50;;
70322;SDS011;57735;56.264;43.898;2023-09-19T10:44:37;9.02;;;4.90;;
70322;SDS011;57735;56.264;43.898;2023-09-19T10:47:13;7.00;;;2.28;;
70322;SDS011;57735;56.264;43.898;2023-09-19T10:49:45;5.28;;;2.70;;
70322;SDS011;57735;56.264;43.898;2023-09-19T10:52:20;7.30;;;2.30;;
70322;SDS011;57735;56.264;43.898;2023-09-19T10:54:55;9.40;;;2.50;;
70322;SDS011;57735;56.264;43.898;2023-09-19T10:57:28;3.45;;;2.05;;
70322;SDS011;57735;56.264;43.898;2023-09-19T11:00:05;8.93;;;2.30;;
70322;SDS011;57735;56.264;43.898;2023-09-19T11:08:52;3.55;;;2.05;;
70322;SDS011;57735;56.264;43.898;2023-09-19T11:11:46;7.25;;;1.88;;
70322;SDS011;57735;56.264;43.898;2023-09-19T11:30:37;2.95;;;1.33;;
70322;SDS011;57735;56.264;43.898;2023-09-19T11:33:23;17.23;;;2.45;;
70322;SDS011;57735;56.264;43.898;2023-09-19T11:36:11;7.65;;;2.60;;
70322;SDS011;57735;56.264;43.898;2023-09-19T11:46:53;7.38;;;3.67;;
70322;SDS011;57735;56.264;43.898;2023-09-19T11:49:28;8.50;;;4.32;;
70322;SDS011;57735;56.264;43.898;2023-09-19T11:52:04;11.10;;;3.30;;
70322;SDS011;57735;56.264;43.898;2023-09-19T11:54:36;10.10;;;2.60;;
70322;SDS011;57735;56.264;43.898;2023-09-19T11:57:10;8.93;;;2.50;;
70322;SDS011;57735;56.264;43.898;2023-09-19T11:59:43;16.98;;;8.15;;
70322;SDS011;57735;56.264;43.898;2023-09-19T12:02:18;9.90;;;4.40;;
70322;SDS011;57735;56.264;43.898;2023-09-19T12:05:08;9.20;;;2.08;;
70322;SDS011;57735;56.264;43.898;2023-09-19T12:07:45;3.00;;;1.90;;
70322;SDS011;57735;56.264;43.898;2023-09-19T12:10:18;7.18;;;2.13;;
70322;SDS011;57735;56.264;43.898;2023-09-19T12:12:52;4.45;;;1.60;;
70322;SDS011;57735;56.264;43.898;2023-09-19T12:15:24;1.88;;;1.00;;
70322;SDS011;57735;56.264;43.898;2023-09-19T12:17:58;3.78;;;1.50;;
70322;SDS011;57735;56.264;43.898;2023-09-19T12:20:42;2.28;;;0.85;;
70322;SDS011;57735;56.264;43.898;2023-09-19T12:23:17;3.10;;;1.05;;
70322;SDS011;57735;56.264;43.898;2023-09-19T12:25:58;1.40;;;0.88;;
70322;SDS011;57735;56.264;43.898;2023-09-19T12:28:42;3.03;;;1.00;;
70322;SDS011;57735;56.264;43.898;2023-09-19T12:31:14;1.60;;;0.90;;
70322;SDS011;57735;56.264;43.898;2023-09-19T12:33:53;4.18;;;1.05;;
70322;SDS011;57735;56.264;43.898;2023-09-19T12:36:25;2.65;;;1.02;;
70322;SDS011;57735;56.264;43.898;2023-09-19T12:39:00;4.68;;;1.20;;
70322;SDS011;57735;56.264;43.898;2023-09-19T12:41:38;4.38;;;1.25;;
70322;SDS011;57735;56.264;43.898;2023-09-19T12:44:10;7.75;;;1.50;;
70322;SDS011;57735;56.264;43.898;2023-09-19T12:46:44;3.92;;;0.85;;
70322;SDS011;57735;56.264;43.898;2023-09-19T12:49:16;5.97;;;1.25;;
70322;SDS011;57735;56.264;43.898;2023-09-19T12:51:48;3.88;;;1.10;;
70322;SDS011;57735;56.264;43.898;2023-09-19T12:54:19;2.70;;;1.13;;
70322;SDS011;57735;56.264;43.898;2023-09-19T12:56:52;2.53;;;0.85;;
70322;SDS011;57735;56.264;43.898;2023-09-19T12:59:29;6.65;;;1.45;;
70322;SDS011;57735;56.264;43.898;2023-09-19T13:02:04;5.70;;;1.40;;
70322;SDS011;57735;56.264;43.898;2023-09-19T13:04:51;1.73;;;0.93;;
70322;SDS011;57735;56.264;43.898;2023-09-19T13:10:17;2.08;;;0.98;;
70322;SDS011;57735;56.264;43.898;2023-09-19T13:12:54;1.67;;;0.90;;
70322;SDS011;57735;56.264;43.898;2023-09-19T13:15:26;2.45;;;1.00;;
70322;SDS011;57735;56.264;43.898;2023-09-19T13:18:00;1.80;;;1.00;;
70322;SDS011;57735;56.264;43.898;2023-09-19T13:20:43;2.70;;;0.80;;
70322;SDS011;57735;56.264;43.898;2023-09-19T13:23:53;11.38;;;1.20;;
70322;SDS011;57735;56.264;43.898;2023-09-19T13:26:32;3.17;;;1.10;;
70322;SDS011;57735;56.264;43.898;2023-09-19T13:29:03;9.02;;;1.80;;
70322;SDS011;57735;56.264;43.898;2023-09-19T13:31:34;5.25;;;0.93;;
70322;SDS011;57735;56.264;43.898;2023-09-19T13:34:06;6.28;;;1.00;;
70322;SDS011;57735;56.264;43.898;2023-09-19T13:36:36;3.78;;;1.20;;
70322;SDS011;57735;56.264;43.898;2023-09-19T13:39:08;7.55;;;1.23;;
70322;SDS011;57735;56.264;43.898;2023-09-19T13:41:39;1.90;;;1.10;;
70322;SDS011;57735;56.264;43.898;2023-09-19T13:44:10;9.27;;;1.20;;
70322;SDS011;57735;56.264;43.898;2023-09-19T13:46:42;6.13;;;1.20;;
70322;SDS011;57735;56.264;43.898;2023-09-19T13:49:17;12.90;;;3.10;;
70322;SDS011;57735;56.264;43.898;2023-09-19T13:51:48;3.60;;;1.23;;
70322;SDS011;57735;56.264;43.898;2023-09-19T13:54:19;4.13;;;1.30;;
70322;SDS011;57735;56.264;43.898;2023-09-19T13:56:51;3.97;;;1.25;;
70322;SDS011;57735;56.264;43.898;2023-09-19T13:59:23;3.35;;;1.20;;
70322;SDS011;57735;56.264;43.898;2023-09-19T14:01:54;1.77;;;1.00;;
70322;SDS011;57735;56.264;43.898;2023-09-19T14:04:25;5.32;;;1.30;;
70322;SDS011;57735;56.264;43.898;2023-09-19T14:06:58;8.27;;;1.30;;
70322;SDS011;57735;56.264;43.898;2023-09-19T14:09:30;3.85;;;1.50;;
70322;SDS011;57735;56.264;43.898;2023-09-19T14:12:01;12.90;;;2.10;;
70322;SDS011;57735;56.264;43.898;2023-09-19T14:14:34;9.90;;;3.03;;
70322;SDS011;57735;56.264;43.898;2023-09-19T14:17:07;8.15;;;1.80;;
70322;SDS011;57735;56.264;43.898;2023-09-19T14:19:40;7.88;;;1.20;;
70322;SDS011;57735;56.264;43.898;2023-09-19T14:22:13;4.07;;;1.02;;
70322;SDS011;57735;56.264;43.898;2023-09-19T14:24:44;7.47;;;1.15;;
70322;SDS011;57735;56.264;43.898;2023-09-19T14:27:15;15.77;;;1.55;;
70322;SDS011;57735;56.264;43.898;2023-09-19T14:29:46;6.38;;;1.30;;
70322;SDS011;57735;56.264;43.898;2023-09-19T14:32:16;9.32;;;1.48;;
70322;SDS011;57735;56.264;43.898;2023-09-19T14:34:47;6.68;;;1.35;;
70322;SDS011;57735;56.264;43.898;2023-09-19T14:37:18;4.40;;;1.20;;
70322;SDS011;57735;56.264;43.898;2023-09-19T14:39:51;2.58;;;1.17;;
70322;SDS011;57735;56.264;43.898;2023-09-19T14:42:22;3.28;;;1.08;;
70322;SDS011;57735;56.264;43.898;2023-09-19T14:44:55;5.20;;;1.10;;
70322;SDS011;57735;56.264;43.898;2023-09-19T14:47:26;9.48;;;1.60;;
70322;SDS011;57735;56.264;43.898;2023-09-19T14:50:02;12.73;;;1.98;;
70322;SDS011;57735;56.264;43.898;2023-09-19T14:52:39;7.43;;;1.63;;
70322;SDS011;57735;56.264;43.898;2023-09-19T14:55:10;9.32;;;2.03;;
70322;SDS011;57735;56.264;43.898;2023-09-19T14:57:44;6.40;;;1.70;;
70322;SDS011;57735;56.264;43.898;2023-09-19T15:00:23;7.10;;;1.88;;
70322;SDS011;57735;56.264;43.898;2023-09-19T15:02:54;8.30;;;2.20;;
70322;SDS011;57735;56.264;43.898;2023-09-19T15:05:27;10.43;;;2.20;;
70322;SDS011;57735;56.264;43.898;2023-09-19T15:07:59;15.75;;;2.60;;
70322;SDS011;57735;56.264;43.898;2023-09-19T15:10:33;13.57;;;2.13;;
70322;SDS011;57735;56.264;43.898;2023-09-19T15:13:04;20.05;;;2.90;;
70322;SDS011;57735;56.264;43.898;2023-09-19T15:15:38;21.60;;;3.40;;
70322;SDS011;57735;56.264;43.898;2023-09-19T15:18:08;14.18;;;3.75;;
70322;SDS011;57735;56.264;43.898;2023-09-19T15:20:43;9.15;;;4.38;;
70322;SDS011;57735;56.264;43.898;2023-09-19T15:23:14;14.95;;;4.38;;
70322;SDS011;57735;56.264;43.898;2023-09-19T15:25:49;16.23;;;4.60;;
70322;SDS011;57735;56.264;43.898;2023-09-19T15:28:20;18.35;;;5.38;;
70322;SDS011;57735;56.264;43.898;2023-09-19T15:31:03;31.60;;;5.90;;
70322;SDS011;57735;56.264;43.898;2023-09-19T15:33:38;22.23;;;5.75;;
70322;SDS011;57735;56.264;43.898;2023-09-19T15:36:11;29.40;;;9.32;;
70322;SDS011;57735;56.264;43.898;2023-09-19T15:41:44;30.13;;;8.18;;
70322;SDS011;57735;56.264;43.898;2023-09-19T15:44:19;29.38;;;8.85;;
70322;SDS011;57735;56.264;43.898;2023-09-19T15:46:50;36.88;;;8.25;;
70322;SDS011;57735;56.264;43.898;2023-09-19T15:49:21;26.38;;;7.13;;
70322;SDS011;57735;56.264;43.898;2023-09-19T15:51:53;35.40;;;8.52;;
70322;SDS011;57735;56.264;43.898;2023-09-19T15:54:23;34.40;;;8.02;;
70322;SDS011;57735;56.264;43.898;2023-09-19T15:56:56;35.45;;;8.57;;
70322;SDS011;57735;56.264;43.898;2023-09-19T15:59:27;37.30;;;8.02;;